Tropical Cyclones
[Index]
Main Index Home Page Stock Weather Photos Extreme Storms Discussion Storm News and Storm Chasing Reports Tropical Cyclones / Hurricanes / Typhoons Weather Data and Links Wild Fires / Bushfires Weather Observation Techniques Weather Picture Catalogue Tornado Pictures and Reports Stock Video Footage and DVDs for sale
Season 2002-2003 Tropical Cyclone GERRY Track Map
Season 2002-2003 Summaries (Operational Data): [AU] [SIO] [SPAC] [SH]
<<- Previous TC | 2002-2003 Season | Next TC ->>

click for intensity scale information  Lat/long Grid: Show Hide

 Date Labels: Show Hide

Operational Tropical Cyclone Data : JTWC Advisories

Name: GERRY
Number: 0316

08 Feb 2003 06:00 UTC to 17 Feb 2003 12:00 UTC

    date/time    lat    long     hPa   cat  kts
2003-02-08 06   14.8    55.6     999         25          
2003-02-08 12   14.8    55.3     999         25          
2003-02-08 18   14.5    55.5     999         25          
2003-02-09 00   13.5    56.0     998         30          
2003-02-09 06   12.2    55.5     998         30          
2003-02-09 12   11.8    55.0     998         30          
2003-02-09 18   11.5    54.7     998         30          
2003-02-10 00   12.0    54.4     998         30          
2003-02-10 06   11.3    54.8     994    1    35          
2003-02-10 12   11.8    54.6     991    1    40          
2003-02-10 18   12.2    54.4     990    1    40          
2003-02-11 00   12.8    54.7     988    1    40          
2003-02-11 06   13.8    54.5     988    1    40          
2003-02-11 12   14.9    53.4     985    2    50          
2003-02-11 18   15.4    53.5     985    2    50          
2003-02-12 00   16.1    54.2     982    2    50          
2003-02-12 06   16.5    54.7     975    2    50          
2003-02-12 12   17.2    55.3     967    3    65          
2003-02-12 18   18.1    56.2     965    3    70          
2003-02-13 00   18.7    57.2     960    3    70          
2003-02-13 06   19.4    58.6     940    4    90          
2003-02-13 12   20.4    59.9     940    4    90          
2003-02-13 18   22.0    61.0     940    4    90          
2003-02-14 00   22.4    61.5     948    3    80          
2003-02-14 06   23.3    62.1     955    3    75          
2003-02-14 12   24.7    63.3     976    2    60          
2003-02-14 18   25.8    65.0     985    2    50          
2003-02-15 00   27.3    65.3     990    1    40          
2003-02-15 06   27.2    66.3     992    1    40          
2003-02-15 12   28.0    67.0     993    1    40          
2003-02-15 18   27.8    68.6     995    1    40          
2003-02-16 00   28.0    69.5     998         30          
2003-02-16 06   27.7    70.3     998         30          
2003-02-16 12   27.0    71.3     998         30          
2003-02-16 18   26.5    72.5     999         30          
2003-02-17 00   25.7    74.1    1000         30          
2003-02-17 06   26.4    74.3    1000         30          
2003-02-17 12   26.3    75.2    1000         30          
Winds are 10-min average.

Tropical cyclone tracks developed by Michael Bath using operational warnings and advisories and Google Maps.


[Australian Severe Weather index] [Copyright Notice] [Email Contacts] [Search This Site] [Privacy Policy]
Document: tropical_cyclone_gerry.htm Updated: 2 May 2017